Latest Weather Observations for Naracoorte

IDS60801

Issued at 2:01 pm CST Tuesday 25 April 2017 (issued every 30 minutes, with the page automatically refreshed every 10 minutes)

About weather observations | Map of weather stations | Latest weather observations for SA | Other Formats
Station Details ID: 026099 Name: NARACOORTE AERODROME Lat: -36.98 Lon: 140.73 Height: 49.72 m
Data from the previous 72 hours. | See also: Recent months at Naracoorte
Date/Time
CST
Temp
°C
App
Temp
°C
Dew
Point
°C
Rel
Hum
%
Delta-T
°C
Wind Press
QNH
hPa
Press
MSL
hPa
Rain since
9am
mm
Dir  Spd
km/h
Gust
km/h
Spd
kts
Gust
kts
25/02:00pm 18.5 12.6 12.5 68 3.4 W 35 44 19 24 1008.2 1008.2 0.0
25/01:30pm 19.9 16.2 13.8 68 3.5 W 26 33 14 18 1008.4 1008.4 0.0
25/01:00pm 19.3 16.0 14.1 72 3.0 W 24 30 13 16 1008.7 1008.7 0.0
25/12:30pm 17.7 14.5 13.0 74 2.6 W 22 28 12 15 1009.3 1009.3 0.0
25/12:00pm 18.7 16.3 14.4 76 2.5 W 20 30 11 16 1009.7 1009.7 0.0
25/11:30am 18.8 16.5 14.1 74 2.7 NW 19 24 10 13 1010.3 1010.3 0.0
25/11:00am 17.3 16.1 14.0 81 1.9 W 13 19 7 10 1011.0 1011.0 0.0
25/10:30am 16.9 15.6 13.8 82 1.8 W 13 17 7 9 1011.1 1011.1 0.0
25/10:00am 16.2 15.8 14.2 88 1.1 WNW 9 13 5 7 1011.4 1011.4 0.0
25/09:30am 15.8 16.2 14.8 94 0.6 NNW 6 9 3 5 1011.2 1011.2 0.0
25/09:00am 14.6 14.2 14.0 96 0.3 W 9 11 5 6 1011.5 1011.5 28.2
25/08:30am 14.3 13.8 13.8 97 0.3 WSW 9 11 5 6 1011.6 1011.6 28.2
25/08:00am 13.9 13.6 13.4 97 0.3 W 7 9 4 5 1011.4 1011.4 28.2
25/07:30am 13.6 12.9 13.1 97 0.3 WNW 9 11 5 6 1011.1 1011.1 28.2
25/07:00am 13.5 14.1 13.0 97 0.3 NW 2 7 1 4 1010.6 1010.6 28.2
25/06:30am 13.4 14.3 12.9 97 0.3 CALM 0 0 0 0 1010.3 1010.3 28.2
25/06:00am 13.2 12.3 12.7 97 0.3 S 9 11 5 6 1010.0 1010.0 28.2
25/05:30am 13.7 11.9 13.2 97 0.3 S 15 19 8 10 1010.2 1010.2 28.2
25/05:00am 13.8 13.1 13.3 97 0.3 SSW 9 13 5 7 1010.3 1010.3 28.2
25/04:30am 13.9 13.6 13.4 97 0.3 WSW 7 11 4 6 1010.0 1010.0 28.2
25/04:00am 13.9 12.9 13.4 97 0.3 SW 11 13 6 7 1010.0 1010.0 28.2
25/03:30am 13.8 13.7 13.3 97 0.3 SW 6 7 3 4 1009.9 1009.9 28.2
25/03:00am 14.2 13.3 13.7 97 0.3 SW 11 13 6 7 1009.9 1009.9 28.2
25/02:30am 14.6 13.8 14.1 97 0.3 WSW 11 13 6 7 1010.2 1010.2 28.2
25/02:00am 14.7 14.0 14.2 97 0.3 WSW 11 13 6 7 1010.4 1010.4 28.2
25/01:30am 14.7 14.3 14.2 97 0.3 W 9 11 5 6 1010.5 1010.5 28.2
25/01:00am 14.7 14.3 14.2 97 0.3 WSW 9 11 5 6 1010.7 1010.7 28.2
25/12:30am 14.7 14.9 14.2 97 0.3 SSW 6 9 3 5 1010.4 1010.4 28.2
25/12:00am 14.8 14.5 14.3 97 0.3 S 9 13 5 7 1010.4 1010.4 28.2
 
Date/Time
CST
Temp
°C
App
Temp
°C
Dew
Point
°C
Rel
Hum
%
Delta-T
°C
Wind Press
QNH
hPa
Press
MSL
hPa
Rain since
9am
mm
Dir  Spd
km/h
Gust
km/h
Spd
kts
Gust
kts
24/11:30pm 14.8 14.5 14.3 97 0.3 SSW 9 11 5 6 1010.8 1010.8 28.2
24/11:00pm 14.7 14.7 14.2 97 0.3 SSW 7 11 4 6 1011.2 1011.2 28.2
24/10:30pm 14.7 14.3 14.2 97 0.3 S 9 11 5 6 1011.5 1011.5 28.2
24/10:00pm 14.8 14.5 14.3 97 0.3 SSE 9 11 5 6 1011.4 1011.4 28.2
24/09:30pm 14.8 14.1 14.3 97 0.3 S 11 15 6 8 1011.6 1011.6 28.2
24/09:00pm 14.8 14.8 14.3 97 0.3 SSW 7 9 4 5 1012.0 1012.0 28.2
24/08:30pm 14.8 14.5 14.3 97 0.3 S 9 9 5 5 1012.0 1012.0 28.2
24/08:00pm 15.0 15.1 14.5 97 0.3 S 7 11 4 6 1012.2 1012.2 27.8
24/07:30pm 15.1 14.5 14.6 97 0.3 SSW 11 13 6 7 1012.6 1012.6 26.0
24/07:00pm 15.3 15.5 14.8 97 0.3 S 7 9 4 5 1012.5 1012.5 25.0
24/06:30pm 14.9 15.9 14.3 96 0.3 S 2 9 1 5 1012.6 1012.6 25.0
24/06:00pm 15.3 15.5 14.7 96 0.3 S 7 9 4 5 1012.4 1012.4 25.0
24/05:30pm 15.4 16.9 14.6 95 0.5 CALM 0 0 0 0 1012.4 1012.4 25.0
24/05:00pm 15.7 17.3 14.9 95 0.5 CALM 0 6 0 3 1012.5 1012.5 25.0
24/04:30pm 15.8 16.1 15.0 95 0.5 ESE 7 11 4 6 1012.5 1012.5 24.6
24/04:00pm 15.8 15.7 15.0 95 0.5 E 9 13 5 7 1012.6 1012.6 24.6
24/03:30pm 15.6 15.1 15.0 96 0.3 E 11 15 6 8 1013.0 1013.0 24.6
24/03:00pm 15.3 15.1 14.7 96 0.3 ESE 9 13 5 7 1013.3 1013.3 24.6
24/02:30pm 14.8 13.7 14.2 96 0.3 ESE 13 17 7 9 1013.7 1013.7 24.4
24/02:00pm 14.7 13.9 14.1 96 0.3 SE 11 17 6 9 1014.1 1014.1 20.8
24/01:30pm 14.7 13.5 14.1 96 0.3 S 13 15 7 8 1014.7 1014.7 16.0
24/01:00pm 15.0 13.9 14.2 95 0.5 S 13 17 7 9 1015.3 1015.3 12.6
24/12:30pm 15.0 15.0 14.2 95 0.5 SSE 7 9 4 5 1015.7 1015.7 11.6
24/12:00pm 14.9 13.6 13.8 93 0.6 SE 13 17 7 9 1016.2 1016.2 8.8
24/11:30am 15.1 13.8 13.8 92 0.7 S 13 17 7 9 1016.5 1016.5 8.0
24/11:00am 14.5 12.5 13.9 96 0.3 E 17 20 9 11 1017.3 1017.2 7.8
24/10:30am 14.0 12.6 13.4 96 0.3 WSW 13 19 7 10 1018.0 1017.9 6.4
24/10:00am 14.2 14.5 13.4 95 0.4 NNE 4 7 2 4 1018.5 1018.4 3.0
24/09:30am 14.1 15.0 13.0 93 0.6 CALM 0 0 0 0 1018.6 1018.5 0.8
24/09:00am 14.0 13.8 13.1 94 0.5 NE 6 9 3 5 1018.9 1018.8 0.8
24/08:30am 13.7 12.9 12.8 94 0.5 ENE 9 11 5 6 1018.7 1018.6 0.4
24/08:00am 13.4 13.0 12.5 94 0.5 ENE 6 7 3 4 1019.1 1019.0 0.2
24/07:30am 13.2 14.0 12.4 95 0.4 CALM 0 0 0 0 1019.4 1019.3 0.0
24/07:00am 12.9 12.4 12.1 95 0.4 ESE 6 9 3 5 1019.2 1019.1 0.0
24/06:30am 12.9 11.8 12.1 95 0.4 SSE 9 13 5 7 1019.3 1019.2 0.0
24/06:00am 12.9 12.2 12.0 94 0.5 ESE 7 11 4 6 1019.3 1019.2 0.0
24/05:30am 12.8 11.3 12.0 95 0.4 ESE 11 15 6 8 1019.1 1019.0 0.0
24/05:00am 12.7 11.6 12.1 96 0.3 ESE 9 13 5 7 1019.3 1019.2 0.0
24/04:30am 12.7 11.7 12.2 97 0.3 E 9 13 5 7 1019.4 1019.3 0.0
24/04:00am 11.4 9.6 10.9 97 0.3 SSE 11 11 6 6 1019.5 1019.4 0.0
24/03:30am 11.3 10.4 10.8 97 0.3 ESE 6 7 3 4 1019.8 1019.7 0.0
24/03:00am 11.0 9.5 10.5 97 0.3 S 9 9 5 5 1019.9 1019.8 0.0
24/02:30am 11.3 9.5 10.8 97 0.3 SSE 11 13 6 7 1020.4 1020.3 0.0
24/02:00am 11.3 9.5 10.8 97 0.3 S 11 15 6 8 1020.8 1020.7 0.0
24/01:30am 11.5 10.1 11.0 97 0.3 S 9 11 5 6 1021.1 1021.0 0.0
24/01:00am 11.8 11.5 11.3 97 0.3 S 4 7 2 4 1021.3 1021.2 0.0
24/12:30am 11.9 10.3 11.4 97 0.3 SSE 11 11 6 6 1021.4 1021.3 0.0
24/12:00am 11.7 10.0 11.2 97 0.3 SSE 11 13 6 7 1021.7 1021.6 0.0
 
Date/Time
CST
Temp
°C
App
Temp
°C
Dew
Point
°C
Rel
Hum
%
Delta-T
°C
Wind Press
QNH
hPa
Press
MSL
hPa
Rain since
9am
mm
Dir  Spd
km/h
Gust
km/h
Spd
kts
Gust
kts
23/11:30pm 10.9 9.3 10.3 96 0.3 SSE 9 11 5 6 1021.8 1021.7 0.0
23/11:00pm 11.3 9.1 10.7 96 0.3 S 13 15 7 8 1022.1 1022.0 0.0
23/10:30pm 11.1 9.5 10.3 95 0.4 SSE 9 11 5 6 1022.2 1022.1 0.0
23/10:00pm 12.2 10.6 11.4 95 0.4 S 11 13 6 7 1022.4 1022.3 0.0
23/09:30pm 12.9 11.4 11.8 93 0.6 SSE 11 13 6 7 1022.5 1022.4 0.0
23/09:00pm 13.5 12.2 12.4 93 0.6 S 11 13 6 7 1022.5 1022.4 0.0
23/08:30pm 14.1 13.2 12.5 90 0.9 SSE 9 13 5 7 1022.5 1022.4 0.0
23/08:00pm 14.9 13.3 12.9 88 1.1 SE 13 19 7 10 1022.4 1022.3 0.0
23/07:30pm 15.1 13.6 13.0 87 1.2 SE 13 19 7 10 1022.6 1022.5 0.0
23/07:00pm 15.8 14.1 13.6 87 1.2 SE 15 22 8 12 1022.5 1022.4 0.0
23/06:30pm 15.7 13.9 13.4 86 1.3 SE 15 17 8 9 1022.2 1022.1 0.0
23/06:00pm 15.5 14.8 13.2 86 1.3 SE 9 13 5 7 1022.1 1022.0 0.0
23/05:30pm 17.6 17.8 14.3 81 1.9 SSE 6 7 3 4 1021.9 1021.8 0.0
23/05:00pm 18.7 18.0 13.3 71 3.1 ESE 9 11 5 6 1021.7 1021.6 0.0
23/04:30pm 20.3 19.7 13.5 65 3.9 E 9 11 5 6 1021.6 1021.5 0.0
23/04:00pm 20.4 19.5 13.8 66 3.8 ESE 11 15 6 8 1021.7 1021.6 0.0
23/03:30pm 20.9 19.6 13.6 63 4.2 E 13 19 7 10 1021.6 1021.5 0.0
23/03:00pm 20.7 18.4 14.1 66 3.8 ESE 19 24 10 13 1021.4 1021.3 0.0
23/02:30pm 20.6 18.7 14.3 67 3.7 E 17 24 9 13 1021.5 1021.4 0.0
23/02:00pm 20.4 18.8 13.8 66 3.8 SE 15 20 8 11 1021.8 1021.7 0.0
23/01:30pm 19.8 17.5 13.0 65 3.8 SE 17 22 9 12 1022.2 1022.1 0.0
23/01:00pm 20.5 19.5 15.5 73 3.0 SSE 15 22 8 12 1022.5 1022.4 0.0
23/12:30pm 20.4 20.1 14.5 69 3.4 ESE 9 15 5 8 1022.9 1022.8 0.0
23/12:00pm 19.6 19.3 14.4 72 3.0 ESE 9 17 5 9 1023.5 1023.5 0.0
23/11:30am 18.7 17.8 14.8 78 2.3 SSE 13 17 7 9 1023.9 1023.9 0.0
23/11:00am 18.6 17.5 15.3 81 1.9 SE 15 20 8 11 1024.3 1024.3 0.0
23/10:30am 17.6 16.8 15.0 85 1.5 SE 13 19 7 10 1024.6 1024.6 0.0
23/10:00am 17.4 17.2 15.6 89 1.1 ESE 11 13 6 7 1024.7 1024.7 0.0
23/09:30am 16.0 15.8 14.7 92 0.7 ESE 9 13 5 7 1024.9 1024.9 0.0
23/09:00am 15.3 15.0 14.5 95 0.5 SE 9 13 5 7 1025.1 1025.1 0.2
23/08:30am 15.3 15.1 14.8 97 0.3 ESE 9 11 5 6 1025.0 1025.0 0.2
23/08:00am 13.7 14.8 13.4 98 0.2 CALM 0 0 0 0 1024.7 1024.7 0.2
23/07:30am 11.8 12.3 11.5 98 0.2 CALM 0 0 0 0 1024.4 1024.4 0.2
23/07:00am 10.1 10.0 9.6 97 0.3 CALM 0 0 0 0 1024.1 1024.1 0.2
23/06:30am 9.4 9.2 8.9 97 0.2 CALM 0 0 0 0 1023.9 1023.9 0.2
23/06:00am 9.6 9.4 9.1 97 0.2 CALM 0 0 0 0 1023.7 1023.7 0.2
23/05:30am 10.4 10.4 9.9 97 0.3 CALM 0 0 0 0 1023.4 1023.4 0.2
23/05:00am 10.8 9.8 10.3 97 0.3 SSE 6 7 3 4 1023.4 1023.4 0.2
23/04:30am 11.6 10.8 11.1 97 0.3 SSE 6 6 3 3 1023.2 1023.2 0.2
23/04:00am 12.5 11.4 12.0 97 0.3 SSE 9 11 5 6 1023.2 1023.2 0.2
23/03:30am 12.0 11.1 11.5 97 0.3 SSE 7 9 4 5 1023.1 1023.0 0.2
23/03:00am 12.5 11.4 12.0 97 0.3 SSE 9 11 5 6 1023.1 1023.0 0.2
23/02:30am 12.5 11.4 12.0 97 0.3 SSE 9 11 5 6 1023.3 1023.3 0.2
23/02:00am 12.9 11.9 12.4 97 0.3 SSE 9 11 5 6 1023.5 1023.5 0.2
23/01:30am 13.0 11.7 12.5 97 0.3 SSE 11 13 6 7 1023.6 1023.6 0.2
23/01:00am 12.9 11.2 12.4 97 0.3 SSE 13 13 7 7 1023.7 1023.7 0.2
23/12:30am 13.1 11.8 12.5 96 0.3 SSE 11 11 6 6 1023.9 1023.9 0.2
23/12:00am 13.6 12.5 13.0 96 0.3 S 11 13 6 7 1024.0 1024.0 0.2
 
Date/Time
CST
Temp
°C
App
Temp
°C
Dew
Point
°C
Rel
Hum
%
Delta-T
°C
Wind Press
QNH
hPa
Press
MSL
hPa
Rain since
9am
mm
Dir  Spd
km/h
Gust
km/h
Spd
kts
Gust
kts
22/11:30pm 14.3 13.4 13.7 96 0.3 SSE 11 13 6 7 1024.1 1024.1 0.2
22/11:00pm 14.3 13.4 13.7 96 0.3 S 11 13 6 7 1024.1 1024.1 0.2
22/10:30pm 14.0 13.3 13.2 95 0.4 SSE 9 11 5 6 1024.2 1024.2 0.2
22/10:00pm 14.1 13.4 13.3 95 0.4 SSE 9 9 5 5 1024.3 1024.3 0.2
22/09:30pm 14.8 13.9 13.7 93 0.6 SSE 11 13 6 7 1024.2 1024.2 0.2
22/09:00pm 15.5 15.2 14.4 93 0.6 SSE 9 11 5 6 1024.1 1024.1 0.2
22/08:30pm 16.0 15.5 14.9 93 0.6 SSE 11 13 6 7 1024.0 1024.0 0.2
22/08:00pm 16.2 15.3 14.9 92 0.8 SSE 13 15 7 8 1023.7 1023.7 0.2
22/07:30pm 16.4 15.6 15.1 92 0.8 SSE 13 15 7 8 1023.5 1023.5 0.2
22/07:00pm 16.7 15.5 15.1 90 0.9 SSE 15 19 8 10 1023.3 1023.3 0.2
22/06:30pm 17.1 15.9 15.1 88 1.2 SSE 15 17 8 9 1023.0 1022.9 0.2
22/06:00pm 17.6 16.6 15.6 88 1.2 S 15 19 8 10 1022.8 1022.7 0.2
22/05:30pm 18.3 18.1 15.7 85 1.5 SSE 11 15 6 8 1022.6 1022.5 0.2
22/05:00pm 18.8 18.7 15.9 83 1.7 SSE 11 15 6 8 1022.4 1022.3 0.2
22/04:30pm 19.2 18.5 15.5 79 2.2 S 13 17 7 9 1022.3 1022.2 0.2
22/04:00pm 19.3 18.6 15.4 78 2.3 S 13 15 7 8 1022.3 1022.2 0.2
22/03:30pm 19.3 19.1 15.8 80 2.1 S 11 13 6 7 1022.3 1022.2 0.2
22/03:00pm 19.5 19.3 15.6 78 2.3 SW 11 13 6 7 1022.3 1022.2 0.2
22/02:30pm 19.8 20.0 15.7 77 2.4 WSW 9 15 5 8 1022.2 1022.1 0.2

Other Formats:

Comma delimited format used in spreadsheet applications
http://www.bom.gov.au/fwo/IDS60801/IDS60801.94820.axf

JavaScript Object Notation format (JSON) in row-major order
http://www.bom.gov.au/fwo/IDS60801/IDS60801.94820.json